createdAt,value
2023-11-25T00:00:52.141Z,91.75
2023-11-25T00:03:19.895Z,91.56
2023-11-25T00:05:47.879Z,91.45
2023-11-25T00:08:16.523Z,91.71
2023-11-25T00:10:44.261Z,91.70
2023-11-25T00:13:12.309Z,91.22
2023-11-25T00:15:40.723Z,92.12
2023-11-25T00:18:10.006Z,91.00
2023-11-25T00:20:38.376Z,90.40
2023-11-25T00:23:06.789Z,90.28
2023-11-25T00:25:34.546Z,90.43
2023-11-25T00:28:02.399Z,90.36
2023-11-25T00:30:30.475Z,89.45
2023-11-25T00:32:58.351Z,89.08
2023-11-25T00:35:27.520Z,91.26
2023-11-25T00:37:55.351Z,91.28
2023-11-25T00:40:26.757Z,91.20
2023-11-25T00:42:54.565Z,91.24
2023-11-25T00:45:26.232Z,92.26
2023-11-25T00:47:54.448Z,93.13
2023-11-25T00:50:22.313Z,93.59
2023-11-25T00:52:51.596Z,95.04
2023-11-25T00:55:19.309Z,95.56
2023-11-25T00:57:47.202Z,95.23
2023-11-25T01:00:18.168Z,96.58
2023-11-25T01:02:46.370Z,95.96
2023-11-25T01:05:14.320Z,96.13
2023-11-25T01:07:42.081Z,94.22
2023-11-25T01:10:12.784Z,94.58
2023-11-25T01:12:40.583Z,94.67
2023-11-25T01:15:09.461Z,94.39
2023-11-25T01:17:37.161Z,93.37
2023-11-25T01:20:06.728Z,93.30
2023-11-25T01:22:34.652Z,93.22
2023-11-25T01:25:02.482Z,93.69
2023-11-25T01:27:31.818Z,92.91
2023-11-25T01:29:59.744Z,93.99
2023-11-25T01:32:27.444Z,93.52
2023-11-25T01:34:56.376Z,93.70
2023-11-25T01:37:27.651Z,92.56
2023-11-25T01:39:55.561Z,92.59
2023-11-25T01:42:23.270Z,93.73
2023-11-25T01:44:53.024Z,93.63
2023-11-25T01:47:21.150Z,93.78
2023-11-25T01:49:49.536Z,93.15
2023-11-25T01:52:18.701Z,92.99
2023-11-25T01:54:46.564Z,92.69
2023-11-25T01:57:15.896Z,93.28
2023-11-25T01:59:43.768Z,92.59
2023-11-25T02:02:17.182Z,92.26
2023-11-25T02:04:44.985Z,91.13
2023-11-25T02:07:13.125Z,90.72
2023-11-25T02:09:41.653Z,90.22
2023-11-25T02:12:09.526Z,90.25
2023-11-25T02:14:38.430Z,89.81
2023-11-25T02:17:07.117Z,90.79
2023-11-25T02:19:36.271Z,91.10
2023-11-25T02:22:07.854Z,90.52
2023-11-25T02:24:36.891Z,90.76
2023-11-25T02:27:06.002Z,89.82
2023-11-25T02:29:36.221Z,89.39
2023-11-25T02:32:04.974Z,90.25
2023-11-25T02:34:33.137Z,88.39
2023-11-25T02:37:01.070Z,88.83
2023-11-25T02:39:29.715Z,89.46
2023-11-25T02:41:59.440Z,88.17
2023-11-25T02:44:28.529Z,87.24
2023-11-25T02:46:56.261Z,87.70
2023-11-25T02:49:24.035Z,89.21
2023-11-25T02:51:52.706Z,87.91
2023-11-25T02:54:22.560Z,87.95
2023-11-25T02:56:51.069Z,88.52
2023-11-25T02:59:20.455Z,87.64
2023-11-25T03:01:53.002Z,88.51
2023-11-25T03:04:21.681Z,88.41
2023-11-25T03:06:52.262Z,86.65
2023-11-25T03:09:20.558Z,87.13
2023-11-25T03:11:48.711Z,86.99
2023-11-25T03:14:17.337Z,87.48
2023-11-25T03:16:48.442Z,87.48
2023-11-25T03:19:16.267Z,87.30
2023-11-25T03:21:44.515Z,86.58
2023-11-25T03:24:12.468Z,88.06
2023-11-25T03:26:40.519Z,87.44
2023-11-25T03:29:09.003Z,86.87
2023-11-25T03:31:42.621Z,87.89
2023-11-25T03:34:11.838Z,87.03
2023-11-25T03:36:39.977Z,87.33
2023-11-25T03:39:10.657Z,85.90
2023-11-25T03:41:38.553Z,86.76
2023-11-25T03:44:07.614Z,86.42
2023-11-25T03:46:35.639Z,85.95
2023-11-25T03:49:03.808Z,84.45
2023-11-25T03:51:33.125Z,84.50
2023-11-25T03:54:00.859Z,84.88
2023-11-25T03:56:28.677Z,84.32
2023-11-25T03:58:56.595Z,83.76
2023-11-25T04:01:24.603Z,82.97
2023-11-25T04:03:52.448Z,82.51
2023-11-25T04:06:20.734Z,81.19
2023-11-25T04:08:50.075Z,81.72
2023-11-25T04:11:19.152Z,82.02
2023-11-25T04:13:48.107Z,81.97
2023-11-25T04:16:16.928Z,81.12
2023-11-25T04:18:44.791Z,80.82
2023-11-25T04:21:12.625Z,81.20
2023-11-25T04:23:40.741Z,80.85
2023-11-25T04:26:10.067Z,80.32
2023-11-25T04:28:38.100Z,81.50
2023-11-25T04:31:05.859Z,82.29
2023-11-25T04:33:36.177Z,82.61
2023-11-25T04:36:04.601Z,82.97
2023-11-25T04:38:32.408Z,82.73
2023-11-25T04:41:00.184Z,82.67
2023-11-25T04:43:29.796Z,83.70
2023-11-25T04:45:57.996Z,83.29
2023-11-25T04:48:26.430Z,83.52
2023-11-25T04:50:54.109Z,83.80
2023-11-25T04:53:22.384Z,83.83
2023-11-25T04:55:50.610Z,83.11
2023-11-25T04:58:19.641Z,83.00
2023-11-25T05:00:49.088Z,83.15
2023-11-25T05:03:18.526Z,82.51
2023-11-25T05:05:47.037Z,82.08
2023-11-25T05:08:14.729Z,82.62
2023-11-25T05:10:43.042Z,82.79
2023-11-25T05:13:12.882Z,82.00
2023-11-25T05:15:43.045Z,81.97
2023-11-25T05:18:12.073Z,81.68
2023-11-25T05:20:39.984Z,81.90
2023-11-25T05:23:08.137Z,81.45
2023-11-25T05:25:36.084Z,81.12
2023-11-25T05:28:04.401Z,80.92
2023-11-25T05:30:32.253Z,80.18
2023-11-25T05:32:59.976Z,80.04
2023-11-25T05:35:29.164Z,81.40
2023-11-25T05:37:56.918Z,79.91
2023-11-25T05:40:24.642Z,79.39
2023-11-25T05:42:55.224Z,79.00
2023-11-25T05:45:27.435Z,80.26
2023-11-25T05:47:55.672Z,79.88
2023-11-25T05:50:23.759Z,79.08
2023-11-25T05:52:53.429Z,79.57
2023-11-25T05:55:21.975Z,79.09
2023-11-25T05:57:52.331Z,79.08
2023-11-25T06:00:20.970Z,78.98
2023-11-25T06:02:48.713Z,78.66
2023-11-25T06:05:16.852Z,78.64
2023-11-25T06:07:44.732Z,79.74
2023-11-25T06:10:14.209Z,80.20
2023-11-25T06:12:42.765Z,80.21
2023-11-25T06:15:12.546Z,79.74
2023-11-25T06:17:40.497Z,79.49
2023-11-25T06:20:09.332Z,79.99
2023-11-25T06:22:37.236Z,80.92
2023-11-25T06:25:06.492Z,80.82
2023-11-25T06:27:35.520Z,81.00
2023-11-25T06:30:03.863Z,81.58
2023-11-25T06:32:34.043Z,82.01
2023-11-25T06:35:01.957Z,81.39
2023-11-25T06:37:29.700Z,82.47
2023-11-25T06:39:57.671Z,82.65
2023-11-25T06:42:26.165Z,83.54
2023-11-25T06:44:55.354Z,83.45
2023-11-25T06:47:23.376Z,83.01
2023-11-25T06:49:52.596Z,83.37
2023-11-25T06:52:20.746Z,83.32
2023-11-25T06:54:48.846Z,83.56
2023-11-25T06:57:16.583Z,82.87
2023-11-25T06:59:46.879Z,82.38
2023-11-25T07:02:16.481Z,82.03
2023-11-25T07:04:44.443Z,82.08
2023-11-25T07:07:12.490Z,81.62
2023-11-25T07:09:40.207Z,80.51
2023-11-25T07:12:09.716Z,81.68
2023-11-25T07:14:38.461Z,81.30
2023-11-25T07:17:06.239Z,80.80
2023-11-25T07:19:35.372Z,81.49
2023-11-25T07:22:04.785Z,80.31
2023-11-25T07:24:34.080Z,79.47
2023-11-25T07:27:06.008Z,79.77
2023-11-25T07:29:33.749Z,81.05
2023-11-25T07:32:02.152Z,81.06
2023-11-25T07:34:32.141Z,81.00
2023-11-25T07:37:01.582Z,82.30
2023-11-25T07:39:31.036Z,82.30
2023-11-25T07:41:59.251Z,82.58
2023-11-25T07:44:31.269Z,81.64
2023-11-25T07:46:59.280Z,80.80
2023-11-25T07:49:27.543Z,81.82
2023-11-25T07:51:55.362Z,81.02
2023-11-25T07:54:24.929Z,81.91
2023-11-25T07:56:52.767Z,81.52
2023-11-25T07:59:21.718Z,81.28
2023-11-25T08:01:49.790Z,81.43
2023-11-25T08:04:18.041Z,81.53
2023-11-25T08:06:46.055Z,80.90
2023-11-25T08:09:16.128Z,80.70
2023-11-25T08:11:45.321Z,79.12
2023-11-25T08:14:13.253Z,80.48
2023-11-25T08:16:41.190Z,79.92
2023-11-25T08:19:09.159Z,80.86
2023-11-25T08:21:36.844Z,81.58
2023-11-25T08:24:04.757Z,81.24
2023-11-25T08:26:32.473Z,80.24
2023-11-25T08:29:04.047Z,81.69
2023-11-25T08:31:31.986Z,81.14
2023-11-25T08:34:03.975Z,80.76
2023-11-25T08:36:31.709Z,81.99
2023-11-25T08:39:02.572Z,81.61
2023-11-25T08:41:31.098Z,81.00
2023-11-25T08:44:00.521Z,81.92
2023-11-25T08:46:29.745Z,80.93
2023-11-25T08:48:57.796Z,80.76
2023-11-25T08:51:25.476Z,80.59
2023-11-25T08:53:55.291Z,81.88
2023-11-25T08:56:27.366Z,81.55
2023-11-25T08:59:06.196Z,81.41
2023-11-25T09:01:40.729Z,81.84
2023-11-25T09:04:08.998Z,81.38
2023-11-25T09:06:38.192Z,81.58
2023-11-25T09:09:08.348Z,81.45
2023-11-25T09:11:36.472Z,82.16
2023-11-25T09:14:05.400Z,82.01
2023-11-25T09:16:33.409Z,82.64
2023-11-25T09:19:03.845Z,81.28
2023-11-25T09:21:31.722Z,81.69
2023-11-25T09:23:59.703Z,81.99
2023-11-25T09:26:27.824Z,80.67
2023-11-25T09:28:56.303Z,81.13
2023-11-25T09:31:24.983Z,81.52
2023-11-25T09:33:52.797Z,81.74
2023-11-25T09:36:23.870Z,81.96
2023-11-25T09:38:51.722Z,81.65
2023-11-25T09:41:19.795Z,81.81
2023-11-25T09:43:47.782Z,81.71
2023-11-25T09:46:17.437Z,82.94
2023-11-25T09:48:46.886Z,82.19
2023-11-25T09:51:17.460Z,83.09
2023-11-25T09:53:48.761Z,83.17
2023-11-25T09:56:18.315Z,81.74
2023-11-25T09:58:46.507Z,81.37
2023-11-25T10:01:14.365Z,81.95
2023-11-25T10:03:43.996Z,81.07
2023-11-25T10:06:12.307Z,82.40
2023-11-25T10:08:40.674Z,82.44
2023-11-25T10:11:10.600Z,83.12
2023-11-25T10:13:40.389Z,81.62
2023-11-25T10:16:09.468Z,81.15
2023-11-25T10:18:38.868Z,81.35
2023-11-25T10:21:07.690Z,80.31
2023-11-25T10:23:36.901Z,79.71
2023-11-25T10:26:05.659Z,81.18
2023-11-25T10:28:37.739Z,80.20
2023-11-25T10:31:09.047Z,82.07
2023-11-25T10:33:41.465Z,81.79
2023-11-25T10:36:10.540Z,81.88
2023-11-25T10:38:43.195Z,82.61
2023-11-25T10:41:12.901Z,82.23
2023-11-25T10:43:45.978Z,80.54
2023-11-25T10:46:14.334Z,81.31
2023-11-25T10:48:42.145Z,82.56
2023-11-25T10:51:10.337Z,81.52
2023-11-25T10:53:40.495Z,81.35
2023-11-25T10:56:09.473Z,81.54
2023-11-25T10:58:37.403Z,80.39
2023-11-25T11:01:07.096Z,81.52
2023-11-25T11:03:54.431Z,80.07
2023-11-25T11:06:25.267Z,80.57
2023-11-25T11:08:53.909Z,79.99
2023-11-25T11:11:32.218Z,79.61
2023-11-25T11:14:06.359Z,78.47
2023-11-25T11:16:39.815Z,79.13
2023-11-25T11:19:09.127Z,79.80
2023-11-25T11:21:39.731Z,78.27
2023-11-25T11:24:10.086Z,78.73
2023-11-25T11:26:44.914Z,77.92
2023-11-25T11:29:20.221Z,78.23
2023-11-25T11:32:00.468Z,78.96
2023-11-25T11:34:30.715Z,77.18
2023-11-25T11:36:59.528Z,78.71
2023-11-25T11:39:35.219Z,77.86
2023-11-25T11:42:26.584Z,78.86
2023-11-25T11:45:12.419Z,78.17
2023-11-25T11:47:42.933Z,77.90
2023-11-25T11:50:11.000Z,78.34
2023-11-25T11:53:03.428Z,77.58
2023-11-25T11:55:40.525Z,76.47
2023-11-25T11:58:10.427Z,78.03
2023-11-25T12:00:42.877Z,77.04
2023-11-25T12:03:12.223Z,77.84
2023-11-25T12:05:40.300Z,75.46
2023-11-25T12:08:08.347Z,74.02
2023-11-25T12:10:36.772Z,73.68
2023-11-25T12:13:05.539Z,76.06
2023-11-25T12:15:33.905Z,74.33
2023-11-25T12:18:02.494Z,75.17
2023-11-25T12:20:32.407Z,76.53
2023-11-25T12:23:08.458Z,75.97
2023-11-25T12:25:37.454Z,77.31
2023-11-25T12:28:10.120Z,77.03
2023-11-25T12:30:39.512Z,78.91
2023-11-25T12:33:08.380Z,78.87
2023-11-25T12:35:38.483Z,76.62
2023-11-25T12:38:14.662Z,76.35
2023-11-25T12:40:46.527Z,78.55
2023-11-25T12:43:15.193Z,78.55
2023-11-25T12:45:45.040Z,78.52
2023-11-25T12:48:18.165Z,80.13
2023-11-25T12:51:06.304Z,80.01
2023-11-25T12:53:35.875Z,80.07
2023-11-25T12:56:04.413Z,81.50
2023-11-25T12:58:32.495Z,81.28
2023-11-25T13:01:00.828Z,80.76
2023-11-25T13:03:29.840Z,80.36
2023-11-25T13:06:02.471Z,80.42
2023-11-25T13:08:34.066Z,79.08
2023-11-25T13:11:05.073Z,79.73
2023-11-25T13:13:33.915Z,80.47
2023-11-25T13:16:05.213Z,79.72
2023-11-25T13:18:34.063Z,80.22
2023-11-25T13:21:07.929Z,81.34
2023-11-25T13:23:36.088Z,79.16
2023-11-25T13:26:04.048Z,79.38
2023-11-25T13:28:31.906Z,80.31
2023-11-25T13:30:59.781Z,80.88
2023-11-25T13:33:29.250Z,80.90
2023-11-25T13:35:57.149Z,81.78
2023-11-25T13:38:29.094Z,81.64
2023-11-25T13:40:56.824Z,81.37
2023-11-25T13:43:24.685Z,80.49
2023-11-25T13:45:52.760Z,80.08
2023-11-25T13:48:20.527Z,80.63
2023-11-25T13:50:48.361Z,81.25
2023-11-25T13:53:19.250Z,81.61
2023-11-25T13:55:49.800Z,82.31
2023-11-25T13:58:17.843Z,81.20
2023-11-25T14:00:46.154Z,81.25
2023-11-25T14:03:15.296Z,82.65
2023-11-25T14:05:44.886Z,83.57
2023-11-25T14:08:15.857Z,84.66
2023-11-25T14:10:44.512Z,85.07
2023-11-25T14:13:15.106Z,84.67
2023-11-25T14:15:43.710Z,86.04
2023-11-25T14:18:11.603Z,86.21
2023-11-25T14:20:39.774Z,88.15
2023-11-25T14:23:07.570Z,88.98
2023-11-25T14:25:36.317Z,90.06
2023-11-25T14:28:04.344Z,89.71
2023-11-25T14:30:34.734Z,90.52
2023-11-25T14:33:04.814Z,91.40
2023-11-25T14:35:33.671Z,92.51
2023-11-25T14:38:04.883Z,93.06
2023-11-25T14:40:36.710Z,93.17
2023-11-25T14:43:05.927Z,93.65
2023-11-25T14:45:35.634Z,95.38
2023-11-25T14:48:04.595Z,95.00
2023-11-25T14:50:32.523Z,95.20
2023-11-25T14:53:00.780Z,94.88
2023-11-25T14:55:28.598Z,95.78
2023-11-25T14:57:57.289Z,95.59
2023-11-25T15:00:29.247Z,95.59
2023-11-25T15:02:59.045Z,95.23
2023-11-25T15:05:26.874Z,95.04
2023-11-25T15:07:54.955Z,95.01
2023-11-25T15:10:26.206Z,95.05
2023-11-25T15:12:54.356Z,94.59
2023-11-25T15:15:22.030Z,94.53
2023-11-25T15:17:49.849Z,93.91
2023-11-25T15:20:20.391Z,93.38
2023-11-25T15:22:48.378Z,93.09
2023-11-25T15:25:16.669Z,93.32
2023-11-25T15:27:44.516Z,93.87
2023-11-25T15:30:13.730Z,94.73
2023-11-25T15:32:43.576Z,94.97
2023-11-25T15:35:11.817Z,96.76
2023-11-25T15:37:40.989Z,96.24
2023-11-25T15:40:14.034Z,96.39
2023-11-25T15:42:41.885Z,95.57
2023-11-25T15:45:10.657Z,96.09
2023-11-25T15:47:38.474Z,95.82
2023-11-25T15:50:07.258Z,95.51
2023-11-25T15:52:35.570Z,94.77
2023-11-25T15:55:05.160Z,95.08
2023-11-25T15:57:32.934Z,94.49
2023-11-25T16:00:00.767Z,94.82
2023-11-25T16:02:28.542Z,93.49
2023-11-25T16:04:56.661Z,94.60
2023-11-25T16:07:25.701Z,93.99
2023-11-25T16:09:53.520Z,93.89
2023-11-25T16:12:22.569Z,94.18
2023-11-25T16:14:50.336Z,94.84
2023-11-25T16:17:18.070Z,95.16
2023-11-25T16:19:46.284Z,95.03
2023-11-25T16:22:13.990Z,94.18
2023-11-25T16:24:41.807Z,94.87
2023-11-25T16:27:09.680Z,94.44
2023-11-25T16:29:38.721Z,94.64
2023-11-25T16:32:07.192Z,95.51
2023-11-25T16:34:34.993Z,95.04
2023-11-25T16:37:03.000Z,94.99
2023-11-25T16:39:30.709Z,95.58
2023-11-25T16:41:59.209Z,95.69
2023-11-25T16:44:27.019Z,95.78
2023-11-25T16:46:56.122Z,95.27
2023-11-25T16:49:24.675Z,94.52
2023-11-25T16:51:53.701Z,94.88
2023-11-25T16:54:21.463Z,95.53
2023-11-25T16:56:49.268Z,94.92
2023-11-25T16:59:18.140Z,94.73
2023-11-25T17:01:46.173Z,94.74
2023-11-25T17:04:15.754Z,95.35
2023-11-25T17:06:44.704Z,96.53
2023-11-25T17:09:15.036Z,95.75
2023-11-25T17:11:42.856Z,96.22
2023-11-25T17:14:10.543Z,95.70
2023-11-25T17:16:38.463Z,95.54
2023-11-25T17:19:07.064Z,95.98
2023-11-25T17:21:36.212Z,96.09
2023-11-25T17:24:05.010Z,96.49
2023-11-25T17:26:32.733Z,96.59
2023-11-25T17:29:00.446Z,96.36
2023-11-25T17:31:28.204Z,96.07
2023-11-25T17:33:56.192Z,95.37
2023-11-25T17:36:23.880Z,95.92
2023-11-25T17:38:53.566Z,95.05
2023-11-25T17:41:21.311Z,95.61
2023-11-25T17:43:49.280Z,95.47
2023-11-25T17:46:17.053Z,95.65
2023-11-25T17:48:44.896Z,94.92
2023-11-25T17:51:12.770Z,95.83
2023-11-25T17:53:40.714Z,95.90
2023-11-25T17:56:10.416Z,96.02
2023-11-25T17:58:38.368Z,96.67
2023-11-25T18:01:06.459Z,96.24
2023-11-25T18:03:35.554Z,96.47
2023-11-25T18:06:03.430Z,97.18
2023-11-25T18:08:31.292Z,96.79
2023-11-25T18:10:59.147Z,96.34
2023-11-25T18:13:28.397Z,96.04
2023-11-25T18:15:56.100Z,95.45
2023-11-25T18:18:23.897Z,94.91
2023-11-25T18:20:52.486Z,95.00
2023-11-25T18:23:20.198Z,95.58
2023-11-25T18:25:48.063Z,96.23
2023-11-25T18:28:15.829Z,95.02
2023-11-25T18:30:44.975Z,96.11
2023-11-25T18:33:14.389Z,96.22
2023-11-25T18:35:42.322Z,96.00
2023-11-25T18:38:10.185Z,96.31
2023-11-25T18:40:37.993Z,96.69
2023-11-25T18:43:06.427Z,97.21
2023-11-25T18:45:34.109Z,96.65
2023-11-25T18:48:03.334Z,97.07
2023-11-25T18:50:31.070Z,97.45
2023-11-25T18:52:58.830Z,97.35
2023-11-25T18:55:26.666Z,96.68
2023-11-25T18:57:54.337Z,97.22
2023-11-25T19:00:22.080Z,96.65
2023-11-25T19:02:51.185Z,96.83
2023-11-25T19:05:20.703Z,96.94
2023-11-25T19:07:48.609Z,96.75
2023-11-25T19:10:17.821Z,96.43
2023-11-25T19:12:45.682Z,97.04
2023-11-25T19:15:13.791Z,96.13
2023-11-25T19:17:41.793Z,96.28
2023-11-25T19:20:12.278Z,97.14
2023-11-25T19:22:42.335Z,96.77
2023-11-25T19:25:11.010Z,96.89
2023-11-25T19:27:38.794Z,96.47
2023-11-25T19:30:08.003Z,96.85
2023-11-25T19:32:35.911Z,97.01
2023-11-25T19:35:03.864Z,96.39
2023-11-25T19:37:32.103Z,96.03
2023-11-25T19:40:01.327Z,95.74
2023-11-25T19:42:29.149Z,96.39
2023-11-25T19:44:56.948Z,96.39
2023-11-25T19:47:24.852Z,97.46
2023-11-25T19:49:52.814Z,97.49
2023-11-25T19:52:20.681Z,96.76
2023-11-25T19:54:48.397Z,96.10
2023-11-25T19:57:18.496Z,96.30
2023-11-25T19:59:46.852Z,96.21
2023-11-25T20:02:14.957Z,96.32
2023-11-25T20:04:43.151Z,96.11
2023-11-25T20:07:11.117Z,95.71
2023-11-25T20:09:38.865Z,96.21
2023-11-25T20:12:10.456Z,96.59
2023-11-25T20:14:39.607Z,96.78
2023-11-25T20:17:07.588Z,95.85
2023-11-25T20:19:35.457Z,96.67
2023-11-25T20:22:06.843Z,96.98
2023-11-25T20:24:35.168Z,97.19
2023-11-25T20:27:03.063Z,97.33
2023-11-25T20:29:30.776Z,97.14
2023-11-25T20:31:59.828Z,97.16
2023-11-25T20:34:28.413Z,97.60
2023-11-25T20:36:55.102Z,97.91
2023-11-25T20:39:24.716Z,96.80
2023-11-25T20:41:53.514Z,97.05
2023-11-25T20:44:21.293Z,98.00
2023-11-25T20:46:49.029Z,98.10
2023-11-25T20:49:18.091Z,98.40
2023-11-25T20:51:45.766Z,99.08
2023-11-25T20:54:13.567Z,98.80
2023-11-25T20:56:41.319Z,98.70
2023-11-25T20:59:09.448Z,97.71
2023-11-25T21:01:37.243Z,97.78
2023-11-25T21:04:05.333Z,96.98
2023-11-25T21:06:35.465Z,98.00
2023-11-25T21:09:03.167Z,97.12
2023-11-25T21:11:30.872Z,96.79
2023-11-25T21:13:59.463Z,98.09
2023-11-25T21:16:27.568Z,97.81
2023-11-25T21:18:55.610Z,97.27
2023-11-25T21:21:23.380Z,97.35
2023-11-25T21:23:52.393Z,96.56
2023-11-25T21:26:20.351Z,97.18
2023-11-25T21:28:48.183Z,96.61
2023-11-25T21:31:16.002Z,96.10
2023-11-25T21:33:44.071Z,96.54
2023-11-25T21:36:12.077Z,96.45
2023-11-25T21:38:39.781Z,97.33
2023-11-25T21:41:10.854Z,96.48
2023-11-25T21:43:38.657Z,97.91
2023-11-25T21:46:08.527Z,97.15
2023-11-25T21:48:38.504Z,97.86
2023-11-25T21:51:09.140Z,97.42
2023-11-25T21:53:37.145Z,98.13
2023-11-25T21:56:05.726Z,97.66
2023-11-25T21:58:35.014Z,96.90
2023-11-25T22:01:03.925Z,97.95
2023-11-25T22:03:34.528Z,97.77
2023-11-25T22:06:02.508Z,97.94
2023-11-25T22:08:30.293Z,98.39
2023-11-25T22:10:58.005Z,97.94
2023-11-25T22:13:25.957Z,98.71
2023-11-25T22:15:55.728Z,98.33
2023-11-25T22:18:23.594Z,98.51
2023-11-25T22:20:51.264Z,98.38
2023-11-25T22:23:19.226Z,97.68
2023-11-25T22:25:55.906Z,98.54
2023-11-25T22:28:23.817Z,98.51
2023-11-25T22:30:53.748Z,98.92
2023-11-25T22:33:23.035Z,98.56
2023-11-25T22:35:56.546Z,98.03
2023-11-25T22:38:29.155Z,97.49
2023-11-25T22:40:57.640Z,97.80
2023-11-25T22:43:25.779Z,98.72
2023-11-25T22:45:53.589Z,98.12
2023-11-25T22:48:22.727Z,98.46
2023-11-25T22:50:50.849Z,98.12
2023-11-25T22:53:18.595Z,97.81
2023-11-25T22:55:46.599Z,97.50
2023-11-25T22:58:14.486Z,98.21
2023-11-25T23:00:50.883Z,98.25
2023-11-25T23:03:18.960Z,98.36
2023-11-25T23:05:48.396Z,98.92
2023-11-25T23:08:16.285Z,99.15
2023-11-25T23:10:44.313Z,99.91
2023-11-25T23:13:12.077Z,100.00
2023-11-25T23:15:40.227Z,100.00
2023-11-25T23:18:09.118Z,100.00
2023-11-25T23:20:37.265Z,100.00
2023-11-25T23:23:07.796Z,100.00
2023-11-25T23:25:35.804Z,100.00
2023-11-25T23:28:03.884Z,99.05
2023-11-25T23:30:31.715Z,99.30
2023-11-25T23:32:59.659Z,99.33
2023-11-25T23:35:28.709Z,99.50
2023-11-25T23:37:56.677Z,99.55
2023-11-25T23:40:26.090Z,99.57
2023-11-25T23:42:53.902Z,99.61
2023-11-25T23:45:22.121Z,100.00
2023-11-25T23:47:49.975Z,100.00
2023-11-25T23:50:17.835Z,100.00
2023-11-25T23:52:45.710Z,98.98
2023-11-25T23:55:14.175Z,98.82
2023-11-25T23:57:43.310Z,100.00
